createdAt,value
2018-09-05T00:00:42.143Z,16.94
2018-09-05T00:01:42.136Z,16.79
2018-09-05T00:02:42.126Z,16.83
2018-09-05T00:03:42.118Z,16.82
2018-09-05T00:04:42.108Z,16.82
2018-09-05T00:05:42.096Z,16.83
2018-09-05T00:06:42.092Z,16.85
2018-09-05T00:07:42.079Z,16.81
2018-09-05T00:08:42.069Z,16.71
2018-09-05T00:09:42.061Z,16.76
2018-09-05T00:10:42.053Z,16.67
2018-09-05T00:11:42.047Z,16.67
2018-09-05T00:12:42.036Z,16.70
2018-09-05T00:13:42.029Z,16.60
2018-09-05T00:14:42.015Z,16.64
2018-09-05T00:15:42.010Z,16.63
2018-09-05T00:16:42.005Z,16.61
2018-09-05T00:17:41.991Z,16.61
2018-09-05T00:18:41.983Z,16.68
2018-09-05T00:19:41.975Z,16.46
2018-09-05T00:20:41.973Z,16.50
2018-09-05T00:21:41.951Z,16.56
2018-09-05T00:22:41.949Z,16.49
2018-09-05T00:23:41.940Z,16.48
2018-09-05T00:24:41.938Z,16.53
2018-09-05T00:25:41.921Z,16.49
2018-09-05T00:26:41.912Z,16.48
2018-09-05T00:27:41.910Z,16.50
2018-09-05T00:28:41.894Z,16.50
2018-09-05T00:29:41.881Z,16.50
2018-09-05T00:30:41.875Z,16.48
2018-09-05T00:31:41.865Z,16.41
2018-09-05T00:32:41.855Z,16.46
2018-09-05T00:33:41.842Z,16.41
2018-09-05T00:34:41.835Z,16.39
2018-09-05T00:35:41.828Z,16.42
2018-09-05T00:36:41.819Z,16.31
2018-09-05T00:37:41.815Z,16.34
2018-09-05T00:38:41.799Z,16.31
2018-09-05T00:39:41.788Z,16.34
2018-09-05T00:40:41.778Z,16.28
2018-09-05T00:41:41.773Z,16.25
2018-09-05T00:42:41.764Z,16.25
2018-09-05T00:43:41.753Z,16.28
2018-09-05T00:44:41.748Z,16.21
2018-09-05T00:45:41.736Z,16.24
2018-09-05T00:46:41.732Z,16.27
2018-09-05T00:47:41.719Z,16.23
2018-09-05T00:48:41.706Z,16.09
2018-09-05T00:49:41.699Z,16.01
2018-09-05T00:50:41.691Z,16.01
2018-09-05T00:51:41.679Z,16.00
2018-09-05T00:52:41.666Z,16.00
2018-09-05T00:53:41.665Z,15.94
2018-09-05T00:54:41.651Z,15.94
2018-09-05T00:55:41.651Z,15.90
2018-09-05T00:56:41.627Z,15.96
2018-09-05T00:57:41.625Z,15.93
2018-09-05T00:58:41.618Z,15.89
2018-09-05T00:59:41.599Z,15.89
2018-09-05T01:00:41.595Z,15.93
2018-09-05T01:01:41.587Z,15.94
2018-09-05T01:02:41.575Z,15.83
2018-09-05T01:03:41.572Z,15.90
2018-09-05T01:04:41.556Z,15.84
2018-09-05T01:05:41.555Z,15.93
2018-09-05T01:06:41.539Z,15.83
2018-09-05T01:07:41.527Z,15.87
2018-09-05T01:08:41.521Z,15.89
2018-09-05T01:09:41.513Z,15.84
2018-09-05T01:10:41.506Z,15.86
2018-09-05T01:11:41.493Z,15.84
2018-09-05T01:12:41.485Z,15.87
2018-09-05T01:13:41.487Z,15.83
2018-09-05T01:14:41.468Z,15.75
2018-09-05T01:15:41.452Z,15.76
2018-09-05T01:16:41.449Z,15.80
2018-09-05T01:17:41.438Z,15.76
2018-09-05T01:18:41.428Z,15.82
2018-09-05T01:19:41.415Z,15.76
2018-09-05T01:20:41.405Z,15.71
2018-09-05T01:21:41.397Z,15.72
2018-09-05T01:22:41.390Z,15.72
2018-09-05T01:23:41.378Z,15.74
2018-09-05T01:24:41.372Z,15.60
2018-09-05T01:25:41.366Z,15.65
2018-09-05T01:26:41.348Z,15.62
2018-09-05T01:27:41.350Z,15.69
2018-09-05T01:28:41.330Z,15.60
2018-09-05T01:29:41.320Z,15.68
2018-09-05T01:30:41.307Z,15.68
2018-09-05T01:31:41.305Z,15.68
2018-09-05T01:32:41.291Z,15.67
2018-09-05T01:33:41.283Z,15.68
2018-09-05T01:34:41.284Z,15.67
2018-09-05T01:35:41.268Z,15.57
2018-09-05T01:36:41.256Z,15.67
2018-09-05T01:37:41.250Z,15.60
2018-09-05T01:38:41.236Z,15.56
2018-09-05T01:39:41.231Z,15.62
2018-09-05T01:40:41.219Z,15.60
2018-09-05T01:41:41.210Z,15.54
2018-09-05T01:42:41.199Z,15.62
2018-09-05T01:43:41.190Z,15.54
2018-09-05T01:44:41.177Z,15.49
2018-09-05T01:45:41.173Z,15.62
2018-09-05T01:46:41.159Z,15.57
2018-09-05T01:47:41.153Z,15.57
2018-09-05T01:48:41.142Z,15.53
2018-09-05T01:49:41.136Z,15.56
2018-09-05T01:50:41.124Z,15.51
2018-09-05T01:51:41.115Z,15.56
2018-09-05T01:52:41.107Z,15.49
2018-09-05T01:53:41.093Z,15.53
2018-09-05T01:54:41.083Z,15.54
2018-09-05T01:55:41.074Z,15.51
2018-09-05T01:56:41.061Z,15.60
2018-09-05T01:57:41.061Z,15.50
2018-09-05T01:58:41.049Z,15.50
2018-09-05T01:59:41.036Z,15.53
2018-09-05T02:00:41.028Z,15.47
2018-09-05T02:01:41.014Z,15.43
2018-09-05T02:02:41.006Z,15.39
2018-09-05T02:03:40.997Z,15.36
2018-09-05T02:04:40.983Z,15.44
2018-09-05T02:05:40.984Z,15.43
2018-09-05T02:06:40.968Z,15.39
2018-09-05T02:07:40.959Z,15.43
2018-09-05T02:08:40.957Z,15.41
2018-09-05T02:09:40.945Z,15.36
2018-09-05T02:10:40.928Z,15.36
2018-09-05T02:11:40.921Z,15.34
2018-09-05T02:12:40.909Z,15.32
2018-09-05T02:13:40.901Z,15.29
2018-09-05T02:14:40.890Z,15.27
2018-09-05T02:15:40.882Z,15.29
2018-09-05T02:16:40.872Z,15.20
2018-09-05T02:17:40.860Z,15.13
2018-09-05T02:18:40.856Z,15.14
2018-09-05T02:19:40.845Z,15.16
2018-09-05T02:20:40.830Z,15.20
2018-09-05T02:21:40.823Z,15.03
2018-09-05T02:22:40.809Z,15.01
2018-09-05T02:23:40.804Z,15.11
2018-09-05T02:24:40.794Z,15.11
2018-09-05T02:25:40.779Z,15.09
2018-09-05T02:26:40.777Z,15.07
2018-09-05T02:27:40.765Z,15.06
2018-09-05T02:28:40.763Z,15.11
2018-09-05T02:29:40.739Z,15.03
2018-09-05T02:30:40.740Z,15.06
2018-09-05T02:31:40.725Z,15.02
2018-09-05T02:32:40.708Z,14.99
2018-09-05T02:33:40.704Z,14.91
2018-09-05T02:34:40.695Z,14.94
2018-09-05T02:35:40.684Z,14.83
2018-09-05T02:36:40.674Z,14.94
2018-09-05T02:37:40.668Z,14.86
2018-09-05T02:38:40.665Z,14.77
2018-09-05T02:39:40.649Z,14.84
2018-09-05T02:40:40.670Z,14.75
2018-09-05T02:41:40.628Z,14.78
2018-09-05T02:42:40.618Z,14.77
2018-09-05T02:43:40.607Z,14.84
2018-09-05T02:44:40.598Z,14.89
2018-09-05T02:45:40.588Z,14.77
2018-09-05T02:46:40.580Z,14.78
2018-09-05T02:47:40.570Z,14.80
2018-09-05T02:48:40.563Z,14.80
2018-09-05T02:49:40.549Z,14.78
2018-09-05T02:50:40.533Z,14.88
2018-09-05T02:51:40.527Z,14.83
2018-09-05T02:52:40.518Z,14.80
2018-09-05T02:53:40.506Z,14.75
2018-09-05T02:54:40.497Z,14.75
2018-09-05T02:55:40.488Z,14.68
2018-09-05T02:56:40.475Z,14.65
2018-09-05T02:57:40.463Z,14.68
2018-09-05T02:58:40.459Z,14.72
2018-09-05T02:59:40.444Z,14.72
2018-09-05T03:00:40.443Z,14.75
2018-09-05T03:01:40.426Z,14.75
2018-09-05T03:02:40.420Z,14.68
2018-09-05T03:03:40.407Z,14.68
2018-09-05T03:04:40.403Z,14.68
2018-09-05T03:05:40.393Z,14.69
2018-09-05T03:06:40.377Z,14.61
2018-09-05T03:07:40.367Z,14.55
2018-09-05T03:08:40.360Z,14.61
2018-09-05T03:09:40.351Z,14.58
2018-09-05T03:10:40.339Z,14.47
2018-09-05T03:11:40.326Z,14.57
2018-09-05T03:12:40.316Z,14.52
2018-09-05T03:13:40.308Z,14.60
2018-09-05T03:14:40.298Z,14.58
2018-09-05T03:15:40.286Z,14.51
2018-09-05T03:16:40.279Z,14.54
2018-09-05T03:17:40.270Z,14.51
2018-09-05T03:18:40.260Z,14.55
2018-09-05T03:19:40.245Z,14.51
2018-09-05T03:20:40.236Z,14.54
2018-09-05T03:21:40.228Z,14.47
2018-09-05T03:22:40.219Z,14.55
2018-09-05T03:23:40.201Z,14.55
2018-09-05T03:24:40.200Z,14.55
2018-09-05T03:25:40.193Z,14.52
2018-09-05T03:26:40.175Z,14.60
2018-09-05T03:27:40.171Z,14.50
2018-09-05T03:28:40.156Z,14.43
2018-09-05T03:29:40.147Z,14.46
2018-09-05T03:30:40.137Z,14.42
2018-09-05T03:31:40.166Z,14.43
2018-09-05T03:32:40.145Z,14.43
2018-09-05T03:33:40.109Z,14.35
2018-09-05T03:34:40.097Z,14.43
2018-09-05T03:35:40.089Z,14.33
2018-09-05T03:36:40.079Z,14.36
2018-09-05T03:37:40.069Z,14.32
2018-09-05T03:38:40.056Z,14.25
2018-09-05T03:39:40.040Z,14.37
2018-09-05T03:40:40.032Z,14.37
2018-09-05T03:41:40.026Z,14.36
2018-09-05T03:42:40.014Z,14.39
2018-09-05T03:43:40.005Z,14.46
2018-09-05T03:44:39.995Z,14.50
2018-09-05T03:45:39.981Z,14.37
2018-09-05T03:46:39.974Z,14.43
2018-09-05T03:47:39.961Z,14.35
2018-09-05T03:48:39.957Z,14.43
2018-09-05T03:49:40.000Z,14.35
2018-09-05T03:50:39.936Z,14.40
2018-09-05T03:51:39.920Z,14.35
2018-09-05T03:52:39.911Z,14.37
2018-09-05T03:53:39.896Z,14.43
2018-09-05T03:54:39.895Z,14.40
2018-09-05T03:55:39.886Z,14.36
2018-09-05T03:56:39.868Z,14.46
2018-09-05T03:57:39.859Z,14.45
2018-09-05T03:58:39.855Z,14.37
2018-09-05T03:59:39.838Z,14.43
2018-09-05T04:00:39.830Z,14.43
2018-09-05T04:01:39.823Z,14.35
2018-09-05T04:02:39.811Z,14.36
2018-09-05T04:03:39.802Z,14.46
2018-09-05T04:04:39.793Z,14.43
2018-09-05T04:05:39.784Z,14.39
2018-09-05T04:06:39.772Z,14.35
2018-09-05T04:07:39.752Z,14.36
2018-09-05T04:08:39.746Z,14.43
2018-09-05T04:09:39.733Z,14.35
2018-09-05T04:10:39.726Z,14.35
2018-09-05T04:11:39.719Z,14.37
2018-09-05T04:12:39.718Z,14.35
2018-09-05T04:13:39.699Z,14.33
2018-09-05T04:14:39.687Z,14.35
2018-09-05T04:15:39.672Z,14.36
2018-09-05T04:16:39.668Z,14.33
2018-09-05T04:17:39.655Z,14.35
2018-09-05T04:18:39.651Z,14.39
2018-09-05T04:19:39.637Z,14.33
2018-09-05T04:20:39.627Z,14.46
2018-09-05T04:21:39.616Z,14.39
2018-09-05T04:22:39.659Z,14.40
2018-09-05T04:23:39.595Z,14.43
2018-09-05T04:24:39.582Z,14.40
2018-09-05T04:25:39.572Z,14.43
2018-09-05T04:26:39.565Z,14.43
2018-09-05T04:27:39.553Z,14.36
2018-09-05T04:28:39.543Z,14.40
2018-09-05T04:29:39.545Z,14.45
2018-09-05T04:30:39.519Z,14.45
2018-09-05T04:31:39.510Z,14.43
2018-09-05T04:32:39.502Z,14.36
2018-09-05T04:33:39.493Z,14.42
2018-09-05T04:34:39.482Z,14.29
2018-09-05T04:35:39.470Z,14.37
2018-09-05T04:36:39.462Z,14.37
2018-09-05T04:37:39.450Z,14.39
2018-09-05T04:38:39.447Z,14.24
2018-09-05T04:39:39.432Z,14.33
2018-09-05T04:40:39.421Z,14.22
2018-09-05T04:41:39.409Z,14.17
2018-09-05T04:42:39.402Z,14.04
2018-09-05T04:43:39.391Z,14.06
2018-09-05T04:44:39.379Z,14.06
2018-09-05T04:45:39.368Z,14.10
2018-09-05T04:46:39.356Z,14.12
2018-09-05T04:47:39.346Z,14.06
2018-09-05T04:48:39.335Z,14.07
2018-09-05T04:49:39.328Z,14.15
2018-09-05T04:50:39.321Z,14.06
2018-09-05T04:51:39.332Z,13.99
2018-09-05T04:52:39.318Z,14.07
2018-09-05T04:53:39.286Z,14.06
2018-09-05T04:54:39.272Z,14.02
2018-09-05T04:55:39.258Z,14.12
2018-09-05T04:56:39.253Z,14.06
2018-09-05T04:57:39.239Z,14.09
2018-09-05T04:58:39.233Z,14.07
2018-09-05T04:59:39.220Z,14.04
2018-09-05T05:00:39.211Z,14.04
2018-09-05T05:01:39.203Z,14.02
2018-09-05T05:02:39.190Z,14.07
2018-09-05T05:03:39.181Z,14.15
2018-09-05T05:04:39.175Z,14.24
2018-09-05T05:05:39.167Z,14.04
2018-09-05T05:06:39.149Z,14.17
2018-09-05T05:07:39.132Z,14.04
2018-09-05T05:08:39.129Z,14.03
2018-09-05T05:09:39.117Z,14.09
2018-09-05T05:10:39.109Z,14.10
2018-09-05T05:11:39.094Z,14.07
2018-09-05T05:12:39.166Z,14.04
2018-09-05T05:13:39.076Z,14.07
2018-09-05T05:14:39.070Z,14.04
2018-09-05T05:15:39.055Z,14.07
2018-09-05T05:16:39.040Z,14.07
2018-09-05T05:17:39.031Z,14.09
2018-09-05T05:18:39.021Z,14.10
2018-09-05T05:19:39.019Z,14.04
2018-09-05T05:20:39.002Z,14.06
2018-09-05T05:21:38.994Z,14.07
2018-09-05T05:22:38.982Z,14.04
2018-09-05T05:23:38.995Z,14.18
2018-09-05T05:24:38.964Z,14.09
2018-09-05T05:25:38.960Z,14.12
2018-09-05T05:26:38.942Z,14.07
2018-09-05T05:27:38.930Z,14.07
2018-09-05T05:28:38.922Z,14.04
2018-09-05T05:29:38.910Z,14.03
2018-09-05T05:30:38.901Z,14.09
2018-09-05T05:31:38.888Z,14.04
2018-09-05T05:32:38.919Z,14.06
2018-09-05T05:33:38.872Z,14.04
2018-09-05T05:34:38.860Z,14.06
2018-09-05T05:35:38.841Z,14.04
2018-09-05T05:36:38.836Z,14.03
2018-09-05T05:37:38.823Z,14.02
2018-09-05T05:38:38.815Z,14.04
2018-09-05T05:39:38.801Z,14.14
2018-09-05T05:40:38.792Z,14.18
2018-09-05T05:41:38.779Z,14.24
2018-09-05T05:42:38.769Z,14.17
2018-09-05T05:43:38.762Z,14.25
2018-09-05T05:44:38.752Z,14.20
2018-09-05T05:45:38.748Z,14.28
2018-09-05T05:46:38.741Z,14.22
2018-09-05T05:47:38.716Z,14.27
2018-09-05T05:48:38.711Z,14.29
2018-09-05T05:49:38.702Z,14.35
2018-09-05T05:50:38.692Z,14.27
2018-09-05T05:51:38.677Z,14.28
2018-09-05T05:52:38.669Z,14.33
2018-09-05T05:53:38.654Z,14.25
2018-09-05T05:54:38.648Z,14.24
2018-09-05T05:55:38.635Z,14.32
2018-09-05T05:56:38.627Z,14.27
2018-09-05T05:57:38.613Z,14.25
2018-09-05T05:58:38.604Z,14.37
2018-09-05T05:59:38.595Z,14.25
2018-09-05T06:00:38.599Z,14.32
2018-09-05T06:01:38.578Z,14.39
2018-09-05T06:02:38.564Z,14.40
2018-09-05T06:03:38.551Z,14.37
2018-09-05T06:04:38.545Z,14.33
2018-09-05T06:05:38.533Z,14.35
2018-09-05T06:06:38.524Z,14.33
2018-09-05T06:07:38.510Z,14.36
2018-09-05T06:08:38.504Z,14.35
2018-09-05T06:09:38.495Z,14.35
2018-09-05T06:10:38.483Z,14.42
2018-09-05T06:11:38.472Z,14.37
2018-09-05T06:12:38.458Z,14.46
2018-09-05T06:13:38.448Z,14.32
2018-09-05T06:14:38.440Z,14.43
2018-09-05T06:15:38.507Z,14.43
2018-09-05T06:16:38.420Z,14.33
2018-09-05T06:17:38.478Z,14.36
2018-09-05T06:18:38.400Z,14.32
2018-09-05T06:19:38.385Z,14.39
2018-09-05T06:20:38.371Z,14.33
2018-09-05T06:21:38.365Z,14.43
2018-09-05T06:22:38.359Z,14.37
2018-09-05T06:23:38.344Z,14.36
2018-09-05T06:24:38.337Z,14.35
2018-09-05T06:25:38.324Z,14.43
2018-09-05T06:26:38.314Z,14.35
2018-09-05T06:27:38.355Z,14.37
2018-09-05T06:28:38.293Z,14.33
2018-09-05T06:29:38.281Z,14.39
2018-09-05T06:30:38.431Z,14.40
2018-09-05T06:31:38.259Z,14.43
2018-09-05T06:32:38.248Z,14.39
2018-09-05T06:33:38.238Z,14.43
2018-09-05T06:34:38.229Z,14.46
2018-09-05T06:35:38.281Z,14.54
2018-09-05T06:36:38.208Z,14.57
2018-09-05T06:37:38.200Z,14.70
2018-09-05T06:38:38.190Z,14.70
2018-09-05T06:39:38.172Z,14.70
2018-09-05T06:40:38.166Z,14.89
2018-09-05T06:41:38.159Z,14.96
2018-09-05T06:42:38.145Z,15.02
2018-09-05T06:43:38.135Z,15.13
2018-09-05T06:44:38.126Z,15.19
2018-09-05T06:45:38.122Z,15.31
2018-09-05T06:46:38.109Z,15.38
2018-09-05T06:47:38.095Z,15.56
2018-09-05T06:48:38.087Z,15.53
2018-09-05T06:49:38.082Z,15.64
2018-09-05T06:50:38.068Z,15.82
2018-09-05T06:51:38.052Z,15.86
2018-09-05T06:52:38.045Z,15.96
2018-09-05T06:53:38.037Z,16.11
2018-09-05T06:54:38.024Z,16.04
2018-09-05T06:55:38.016Z,16.20
2018-09-05T06:56:38.003Z,16.30
2018-09-05T06:57:37.997Z,16.35
2018-09-05T06:58:37.989Z,16.45
2018-09-05T06:59:37.977Z,16.49
2018-09-05T07:00:38.017Z,16.66
2018-09-05T07:01:37.952Z,16.66
2018-09-05T07:02:37.945Z,16.67
2018-09-05T07:03:37.981Z,16.73
2018-09-05T07:04:37.930Z,16.85
2018-09-05T07:05:37.918Z,16.98
2018-09-05T07:06:37.948Z,17.00
2018-09-05T07:07:37.902Z,17.04
2018-09-05T07:08:37.893Z,17.14
2018-09-05T07:09:37.877Z,17.16
2018-09-05T07:10:37.870Z,17.26
2018-09-05T07:11:37.859Z,17.31
2018-09-05T07:12:37.851Z,17.37
2018-09-05T07:13:37.840Z,17.44
2018-09-05T07:14:37.880Z,17.49
2018-09-05T07:15:37.822Z,17.54
2018-09-05T07:16:37.815Z,17.55
2018-09-05T07:17:37.845Z,17.58
2018-09-05T07:18:37.797Z,17.74
2018-09-05T07:19:37.780Z,17.74
2018-09-05T07:20:37.780Z,17.78
2018-09-05T07:21:37.766Z,17.78
2018-09-05T07:22:37.760Z,17.87
2018-09-05T07:23:37.745Z,17.87
2018-09-05T07:24:37.741Z,17.92
2018-09-05T07:25:37.731Z,17.90
2018-09-05T07:26:37.721Z,18.02
2018-09-05T07:27:37.778Z,18.02
2018-09-05T07:28:37.700Z,17.99
2018-09-05T07:29:37.696Z,18.12
2018-09-05T07:30:37.804Z,18.11
2018-09-05T07:31:37.676Z,18.23
2018-09-05T07:32:37.664Z,18.27
2018-09-05T07:33:37.661Z,18.33
2018-09-05T07:34:37.650Z,18.36
2018-09-05T07:35:37.652Z,18.42
2018-09-05T07:36:37.629Z,18.50
2018-09-05T07:37:37.635Z,18.55
2018-09-05T07:38:37.615Z,18.57
2018-09-05T07:39:37.600Z,18.60
2018-09-05T07:40:37.594Z,18.58
2018-09-05T07:41:37.589Z,18.70
2018-09-05T07:42:37.578Z,18.75
2018-09-05T07:43:37.610Z,18.72
2018-09-05T07:44:37.558Z,18.82
2018-09-05T07:45:37.555Z,18.82
2018-09-05T07:46:37.544Z,18.92
2018-09-05T07:47:37.529Z,18.92
2018-09-05T07:48:37.531Z,19.00
2018-09-05T07:49:37.513Z,19.06
2018-09-05T07:50:37.562Z,19.14
2018-09-05T07:51:37.505Z,19.19
2018-09-05T07:52:37.492Z,19.28
2018-09-05T07:53:37.484Z,19.29
2018-09-05T07:54:37.481Z,19.36
2018-09-05T07:55:37.476Z,19.39
2018-09-05T07:56:37.460Z,19.47
2018-09-05T07:57:37.449Z,19.48
2018-09-05T07:58:37.450Z,19.55
2018-09-05T07:59:37.433Z,19.62
2018-09-05T08:00:37.433Z,19.62
2018-09-05T08:01:37.424Z,19.73
2018-09-05T08:02:37.413Z,19.76
2018-09-05T08:03:37.398Z,19.83
2018-09-05T08:04:37.395Z,19.80
2018-09-05T08:05:37.385Z,19.83
2018-09-05T08:06:37.375Z,19.92
2018-09-05T08:07:37.372Z,19.92
2018-09-05T08:08:37.366Z,20.10
2018-09-05T08:09:37.354Z,20.14
2018-09-05T08:10:37.348Z,20.11
2018-09-05T08:11:37.357Z,20.16
2018-09-05T08:12:37.331Z,20.24
2018-09-05T08:13:37.323Z,20.32
2018-09-05T08:14:37.327Z,20.29
2018-09-05T08:15:37.314Z,20.41
2018-09-05T08:16:37.296Z,20.38
2018-09-05T08:17:37.293Z,20.55
2018-09-05T08:18:37.285Z,20.55
2018-09-05T08:19:37.277Z,20.48
2018-09-05T08:20:37.268Z,20.38
2018-09-05T08:21:37.264Z,20.35
2018-09-05T08:22:37.249Z,20.32
2018-09-05T08:23:37.246Z,20.28
2018-09-05T08:24:37.275Z,20.29
2018-09-05T08:25:37.228Z,20.23
2018-09-05T08:26:37.224Z,20.16
2018-09-05T08:27:37.219Z,20.16
2018-09-05T08:28:37.209Z,20.16
2018-09-05T08:29:37.202Z,20.13
2018-09-05T08:30:37.197Z,20.18
2018-09-05T08:31:37.189Z,20.11
2018-09-05T08:32:37.180Z,20.05
2018-09-05T08:33:37.174Z,19.98
2018-09-05T08:34:37.178Z,19.92
2018-09-05T08:35:37.474Z,19.94
2018-09-05T08:36:37.489Z,19.88
2018-09-05T08:37:37.379Z,19.84
2018-09-05T08:38:37.156Z,19.87
2018-09-05T08:39:37.123Z,19.88
2018-09-05T08:40:37.124Z,19.95
2018-09-05T08:41:37.161Z,20.02
2018-09-05T08:42:37.115Z,20.02
2018-09-05T08:43:37.141Z,20.16
2018-09-05T08:44:37.179Z,20.17
2018-09-05T08:45:37.266Z,20.29
2018-09-05T08:46:37.075Z,20.28
2018-09-05T08:47:37.065Z,20.41
2018-09-05T08:48:37.142Z,20.51
2018-09-05T08:49:37.049Z,20.57
2018-09-05T08:50:37.044Z,20.48
2018-09-05T08:51:37.037Z,20.52
2018-09-05T08:52:37.099Z,20.55
2018-09-05T08:53:37.023Z,20.58
2018-09-05T08:54:37.015Z,20.55
2018-09-05T08:55:37.004Z,20.69
2018-09-05T08:56:36.997Z,20.72
2018-09-05T08:57:37.010Z,20.89
2018-09-05T08:58:37.031Z,20.98
2018-09-05T08:59:36.977Z,20.85
2018-09-05T09:00:36.971Z,21.01
2018-09-05T09:01:36.964Z,20.73
2018-09-05T09:02:36.958Z,20.79
2018-09-05T09:03:36.949Z,20.91
2018-09-05T09:04:36.991Z,20.79
2018-09-05T09:05:36.937Z,20.85
2018-09-05T09:06:36.927Z,20.85
2018-09-05T09:07:36.923Z,20.85
2018-09-05T09:08:36.919Z,20.91
2018-09-05T09:09:36.908Z,20.95
2018-09-05T09:10:36.898Z,21.03
2018-09-05T09:11:36.956Z,21.12
2018-09-05T09:12:36.884Z,21.09
2018-09-05T09:13:36.872Z,21.16
2018-09-05T09:14:36.874Z,21.16
2018-09-05T09:15:36.867Z,21.34
2018-09-05T09:16:36.854Z,21.42
2018-09-05T09:17:36.852Z,21.40
2018-09-05T09:18:36.846Z,21.47
2018-09-05T09:19:36.838Z,21.58
2018-09-05T09:20:36.821Z,21.53
2018-09-05T09:21:36.822Z,21.59
2018-09-05T09:22:36.815Z,21.50
2018-09-05T09:23:36.808Z,21.49
2018-09-05T09:24:36.800Z,21.52
2018-09-05T09:25:36.793Z,21.50
2018-09-05T09:26:36.789Z,21.46
2018-09-05T09:27:36.791Z,21.47
2018-09-05T09:28:36.777Z,21.49
2018-09-05T09:29:36.764Z,21.50
2018-09-05T09:30:36.758Z,21.61
2018-09-05T09:31:36.748Z,21.65
2018-09-05T09:32:36.748Z,21.77
2018-09-05T09:33:36.737Z,21.88
2018-09-05T09:34:36.729Z,21.84
2018-09-05T09:35:36.715Z,21.82
2018-09-05T09:36:36.716Z,21.88
2018-09-05T09:37:36.714Z,22.02
2018-09-05T09:38:36.702Z,21.98
2018-09-05T09:39:36.702Z,22.14
2018-09-05T09:40:36.691Z,22.15
2018-09-05T09:41:36.686Z,22.10
2018-09-05T09:42:36.675Z,22.05
2018-09-05T09:43:36.665Z,22.20
2018-09-05T09:44:36.664Z,22.21
2018-09-05T09:45:36.650Z,22.35
2018-09-05T09:46:36.703Z,22.28
2018-09-05T09:47:36.643Z,22.37
2018-09-05T09:48:36.639Z,22.42
2018-09-05T09:49:36.632Z,22.60
2018-09-05T09:50:36.625Z,22.51
2018-09-05T09:51:36.624Z,22.42
2018-09-05T09:52:36.614Z,22.49
2018-09-05T09:53:36.610Z,22.47
2018-09-05T09:54:36.601Z,22.47
2018-09-05T09:55:36.586Z,22.52
2018-09-05T09:56:36.655Z,22.46
2018-09-05T09:57:36.580Z,22.49
2018-09-05T09:58:36.576Z,22.55
2018-09-05T09:59:36.569Z,22.64
2018-09-05T10:00:36.559Z,22.77
2018-09-05T10:01:36.549Z,22.65
2018-09-05T10:02:36.543Z,22.57
2018-09-05T10:03:36.637Z,22.70
2018-09-05T10:04:36.531Z,22.82
2018-09-05T10:05:36.528Z,22.86
2018-09-05T10:06:36.524Z,22.92
2018-09-05T10:07:36.512Z,22.85
2018-09-05T10:08:36.512Z,23.02
2018-09-05T10:09:36.519Z,23.10
2018-09-05T10:10:36.526Z,23.13
2018-09-05T10:11:36.489Z,23.02
2018-09-05T10:12:36.487Z,23.09
2018-09-05T10:13:36.476Z,23.04
2018-09-05T10:14:36.475Z,23.07
2018-09-05T10:15:36.465Z,22.97
2018-09-05T10:16:36.460Z,22.94
2018-09-05T10:17:36.461Z,23.13
2018-09-05T10:18:36.448Z,23.23
2018-09-05T10:19:36.447Z,23.16
2018-09-05T10:20:36.438Z,23.19
2018-09-05T10:21:36.433Z,23.28
2018-09-05T10:22:36.452Z,23.27
2018-09-05T10:23:36.415Z,23.35
2018-09-05T10:24:36.414Z,23.32
2018-09-05T10:25:36.403Z,23.16
2018-09-05T10:26:36.403Z,23.25
2018-09-05T10:27:36.396Z,23.13
2018-09-05T10:28:36.390Z,23.23
2018-09-05T10:29:36.387Z,23.20
2018-09-05T10:30:36.375Z,23.22
2018-09-05T10:31:36.397Z,23.33
2018-09-05T10:32:36.362Z,23.32
2018-09-05T10:33:36.358Z,23.28
2018-09-05T10:34:36.354Z,23.32
2018-09-05T10:35:36.344Z,23.36
2018-09-05T10:36:36.344Z,23.43
2018-09-05T10:37:36.332Z,23.23
2018-09-05T10:38:36.329Z,23.12
2018-09-05T10:39:36.324Z,23.10
2018-09-05T10:40:36.318Z,23.32
2018-09-05T10:41:36.318Z,23.28
2018-09-05T10:42:36.303Z,23.42
2018-09-05T10:43:36.299Z,23.48
2018-09-05T10:44:36.297Z,23.53
2018-09-05T10:45:36.292Z,23.58
2018-09-05T10:46:36.282Z,23.53
2018-09-05T10:47:36.276Z,23.53
2018-09-05T10:48:36.272Z,23.51
2018-09-05T10:49:36.264Z,23.51
2018-09-05T10:50:36.257Z,23.40
2018-09-05T10:51:36.257Z,23.51
2018-09-05T10:52:36.245Z,23.51
2018-09-05T10:53:36.238Z,23.53
2018-09-05T10:54:36.242Z,23.53
2018-09-05T10:55:36.230Z,23.58
2018-09-05T10:56:36.229Z,23.58
2018-09-05T10:57:36.216Z,23.61
2018-09-05T10:58:36.218Z,23.65
2018-09-05T10:59:36.210Z,23.57
2018-09-05T11:00:36.203Z,23.58
2018-09-05T11:01:36.199Z,23.63
2018-09-05T11:02:36.192Z,23.66
2018-09-05T11:03:36.182Z,23.65
2018-09-05T11:04:36.176Z,23.47
2018-09-05T11:05:36.176Z,23.28
2018-09-05T11:06:36.169Z,23.10
2018-09-05T11:07:36.162Z,22.97
2018-09-05T11:08:36.159Z,23.02
2018-09-05T11:09:36.149Z,23.02
2018-09-05T11:10:36.270Z,23.23
2018-09-05T11:11:36.137Z,23.43
2018-09-05T11:12:36.145Z,23.35
2018-09-05T11:13:36.128Z,23.47
2018-09-05T11:14:36.126Z,23.33
2018-09-05T11:15:36.118Z,23.39
2018-09-05T11:16:36.110Z,23.48
2018-09-05T11:17:36.105Z,23.53
2018-09-05T11:18:36.099Z,23.46
2018-09-05T11:19:36.095Z,23.32
2018-09-05T11:20:36.082Z,23.25
2018-09-05T11:21:36.082Z,23.31
2018-09-05T11:22:36.077Z,23.28
2018-09-05T11:23:36.073Z,23.39
2018-09-05T11:24:36.067Z,23.50
2018-09-05T11:25:36.062Z,23.65
2018-09-05T11:26:36.058Z,23.72
2018-09-05T11:27:36.095Z,23.80
2018-09-05T11:28:36.043Z,23.73
2018-09-05T11:29:36.045Z,23.75
2018-09-05T11:30:36.032Z,23.70
2018-09-05T11:31:36.024Z,23.79
2018-09-05T11:32:36.020Z,23.87
2018-09-05T11:33:36.011Z,23.80
2018-09-05T11:34:36.008Z,23.80
2018-09-05T11:35:36.004Z,23.88
2018-09-05T11:36:36.001Z,23.95
2018-09-05T11:37:35.992Z,23.98
2018-09-05T11:38:35.986Z,23.91
2018-09-05T11:39:35.984Z,23.88
2018-09-05T11:40:35.974Z,23.91
2018-09-05T11:41:35.968Z,23.97
2018-09-05T11:42:35.968Z,24.12
2018-09-05T11:43:35.959Z,24.22
2018-09-05T11:44:35.949Z,24.24
2018-09-05T11:45:35.946Z,24.37
2018-09-05T11:46:35.944Z,24.43
2018-09-05T11:47:35.937Z,24.52
2018-09-05T11:48:35.929Z,24.50
2018-09-05T11:49:35.927Z,24.62
2018-09-05T11:50:35.921Z,24.71
2018-09-05T11:51:35.909Z,24.80
2018-09-05T11:52:35.917Z,24.81
2018-09-05T11:53:35.907Z,24.78
2018-09-05T11:54:35.900Z,24.67
2018-09-05T11:55:35.896Z,24.71
2018-09-05T11:56:35.891Z,24.67
2018-09-05T11:57:35.883Z,24.64
2018-09-05T11:58:35.880Z,24.58
2018-09-05T11:59:35.875Z,24.61
2018-09-05T12:00:35.869Z,24.55
2018-09-05T12:01:35.864Z,24.62
2018-09-05T12:02:35.863Z,24.57
2018-09-05T12:03:35.856Z,24.58
2018-09-05T12:04:35.850Z,24.68
2018-09-05T12:05:35.843Z,24.65
2018-09-05T12:06:35.840Z,24.65
2018-09-05T12:07:35.829Z,24.76
2018-09-05T12:08:35.829Z,24.78
2018-09-05T12:09:35.825Z,24.88
2018-09-05T12:10:35.819Z,24.96
2018-09-05T12:11:35.828Z,24.84
2018-09-05T12:12:35.803Z,24.85
2018-09-05T12:13:35.801Z,24.84
2018-09-05T12:14:35.795Z,24.96
2018-09-05T12:15:35.790Z,24.93
2018-09-05T12:16:35.786Z,25.03
2018-09-05T12:17:35.784Z,25.13
2018-09-05T12:18:35.800Z,25.20
2018-09-05T12:19:35.774Z,25.20
2018-09-05T12:20:35.765Z,25.18
2018-09-05T12:21:35.764Z,25.28
2018-09-05T12:22:35.760Z,25.32
2018-09-05T12:23:35.751Z,25.30
2018-09-05T12:24:35.747Z,25.35
2018-09-05T12:25:35.742Z,25.28
2018-09-05T12:26:35.739Z,25.33
2018-09-05T12:27:35.735Z,25.46
2018-09-05T12:28:35.729Z,25.51
2018-09-05T12:29:35.726Z,25.43
2018-09-05T12:30:35.720Z,25.46
2018-09-05T12:31:35.719Z,25.57
2018-09-05T12:32:35.707Z,25.45
2018-09-05T12:33:35.705Z,25.55
2018-09-05T12:34:35.704Z,25.65
2018-09-05T12:35:35.693Z,25.67
2018-09-05T12:36:35.696Z,25.77
2018-09-05T12:37:35.689Z,25.72
2018-09-05T12:38:35.685Z,25.75
2018-09-05T12:39:35.678Z,25.77
2018-09-05T12:40:35.670Z,25.92
2018-09-05T12:41:35.674Z,25.95
2018-09-05T12:42:35.664Z,25.98
2018-09-05T12:43:35.663Z,26.01
2018-09-05T12:44:35.699Z,26.02
2018-09-05T12:45:35.654Z,25.99
2018-09-05T12:46:35.652Z,26.13
2018-09-05T12:47:35.639Z,26.09
2018-09-05T12:48:35.633Z,26.12
2018-09-05T12:49:35.633Z,26.20
2018-09-05T12:50:35.631Z,26.30
2018-09-05T12:51:35.623Z,26.48
2018-09-05T12:52:35.621Z,26.51